D/T METAR WX W/DIR W/SPE G/SPE TEMP DEWP
21/03/19 07:50 EGSC 210750Z 23005KT 9999 FEW008 09/07 Q1033 SW (230°) 5.8mph 9°C 7°C
20/03/19 17:50 EGSC 201750Z 21006KT 9999 FEW020 11/07 Q1032 SSW (210°) 6.9mph 11°C 7°C
20/03/19 17:20 EGSC 201720Z 21007KT 9999 SCT020 12/07 Q1032 SSW (210°) 8.1mph 12°C 7°C
20/03/19 16:50 EGSC 201650Z 22007KT 9999 SCT020 12/08 Q1032 SW (220°) 8.1mph 12°C 8°C
20/03/19 16:20 EGSC 201620Z 22008KT 9999 SCT020 13/08 Q1031 SW (220°) 9.2mph 13°C 8°C
20/03/19 15:20 EGSC 201520Z 24010KT 210V270 9999 BKN020 13/08 Q1031 WSW (240°) 11.5mph 13°C 8°C
20/03/19 14:50 EGSC 201450Z 23011KT 9999 BKN015 13/08 Q1032 SW (230°) 12.7mph 13°C 8°C
20/03/19 13:50 EGSC 201350Z 23010KT 9999 BKN015 13/08 Q1032 SW (230°) 11.5mph 13°C 8°C
20/03/19 13:20 EGSC 201320Z 23011KT 9999 BKN012 12/07 Q1032 SW (230°) 12.7mph 12°C 7°C
20/03/19 12:50 EGSC 201250Z 23010KT 200V260 9999 BKN012 11/08 Q1032 SW (230°) 11.5mph 11°C 8°C
20/03/19 11:50 EGSC 201150Z 22009KT 9999 BKN014 11/07 Q1032 SW (220°) 10.4mph 11°C 7°C
20/03/19 11:20 EGSC 201120Z 24009KT 9999 BKN014 11/08 Q1032 WSW (240°) 10.4mph 11°C 8°C
20/03/19 10:20 EGSC 201020Z 24009KT 9999 BKN013 11/08 Q1032 WSW (240°) 10.4mph 11°C 8°C
20/03/19 09:50 EGSC 200950Z 24010KT 9999 SCT012 11/08 Q1032 WSW (240°) 11.5mph 11°C 8°C
20/03/19 09:20 EGSC 200920Z 24009KT 9999 FEW035 11/08 Q1032 WSW (240°) 10.4mph 11°C 8°C
20/03/19 08:50 EGSC 200850Z 24008KT CAVOK 10/08 Q1031 WSW (240°) 9.2mph 10°C 8°C
20/03/19 07:50 EGSC 200750Z 23007KT 9000 NSC 08/07 Q1031 SW (230°) 8.1mph 8°C 7°C
19/03/19 17:50 EGSC 191750Z 24008KT 9999 SCT045 12/07 Q1027 WSW (240°) 9.2mph 12°C 7°C
19/03/19 17:20 EGSC 191720Z 24007KT 220V280 9999 SCT045 12/07 Q1027 WSW (240°) 8.1mph 12°C 7°C
19/03/19 16:50 EGSC 191650Z 22006KT 190V250 9999 BKN045 12/07 Q1026 SW (220°) 6.9mph 12°C 7°C
19/03/19 16:20 EGSC 191620Z 23007KT 9999 FEW034 BKN049 12/07 Q1026 SW (230°) 8.1mph 12°C 7°C
19/03/19 15:50 EGSC 191550Z 24007KT 9999 FEW034 SCT049 12/06 Q1026 WSW (240°) 8.1mph 12°C 6°C
19/03/19 15:20 EGSC 191520Z 24011KT 9999 FEW028 SCT048 13/06 Q1026 WSW (240°) 12.7mph 13°C 6°C
19/03/19 14:50 EGSC 191450Z 25009KT 9999 FEW030 BKN045 13/05 Q1026 WSW (250°) 10.4mph 13°C 5°C
19/03/19 14:20 EGSC 191420Z 25010KT 9999 FEW028 13/06 Q1026 WSW (250°) 11.5mph 13°C 6°C
19/03/19 13:50 EGSC 191350Z 24009KT 9999 FEW028 13/06 Q1026 WSW (240°) 10.4mph 13°C 6°C
19/03/19 13:20 EGSC 191320Z 24010KT 9999 FEW028 SCT045 14/06 Q1026 WSW (240°) 11.5mph 14°C 6°C
19/03/19 12:50 EGSC 191250Z 24009KT 9999 FEW025 SCT038 13/06 Q1026 WSW (240°) 10.4mph 13°C 6°C
19/03/19 12:20 EGSC 191220Z 23008KT 9999 FEW022 SCT032 13/07 Q1027 SW (230°) 9.2mph 13°C 7°C
19/03/19 11:50 EGSC 191150Z 24008KT 9999 FEW021 SCT032 12/06 Q1027 WSW (240°) 9.2mph 12°C 6°C
19/03/19 11:20 EGSC 191120Z 25006KT 200V280 9999 FEW024 SCT045 11/06 Q1027 WSW (250°) 6.9mph 11°C 6°C
19/03/19 10:50 EGSC 191050Z 23006KT 190V260 9999 SCT012 SCT040 12/06 Q1027 SW (230°) 6.9mph 12°C 6°C
19/03/19 10:20 EGSC 191020Z 19007KT 9999 SCT010 SCT030 12/07 Q1027 S (190°) 8.1mph 12°C 7°C
19/03/19 09:50 EGSC 190950Z 21005KT 9999 SCT010 SCT038 11/07 Q1027 SSW (210°) 5.8mph 11°C 7°C
19/03/19 09:20 EGSC 190920Z 26006KT 9999 FEW009 SCT040 10/07 Q1026 W (260°) 6.9mph 10°C 7°C
19/03/19 08:50 EGSC 190850Z 23005KT 8000 FEW008 SCT037 09/06 Q1026 SW (230°) 5.8mph 9°C 6°C
19/03/19 08:20 EGSC 190820Z 22004KT 190V260 8000 BKN036 08/06 Q1026 SW (220°) 4.6mph 8°C 6°C
18/03/19 17:50 EGSC 181750Z 27006KT 9999 FEW035 10/02 Q1021 W (270°) 6.9mph 10°C 2°C
18/03/19 17:20 EGSC 181720Z 29006KT 9999 VCSH FEW035 10/02 Q1021 VCSH WNW (290°) 6.9mph 10°C 2°C
18/03/19 16:50 EGSC 181650Z 29009KT 9999 VCSH FEW038 10/02 Q1021 VCSH WNW (290°) 10.4mph 10°C 2°C
18/03/19 16:20 EGSC 181620Z 29010KT 9999 VCSH SCT038 11/02 Q1020 VCSH WNW (290°) 11.5mph 11°C 2°C
18/03/19 15:50 EGSC 181550Z VRB03KT 9999 VCSH SCT038 11/03 Q1020 VCSH N (0°) 3.5mph 11°C 3°C
18/03/19 15:20 EGSC 181520Z 03005KT 320V090 9999 VCSH SCT040 10/03 Q1020 VCSH NNE (30°) 5.8mph 10°C 3°C
18/03/19 13:50 EGSC 181350Z 32005KT 9999 VCSH SCT045 10/03 Q1020 VCSH NW (320°) 5.8mph 10°C 3°C
18/03/19 12:50 EGSC 181250Z 29009KT 9999 -SHRA SCT030 10/02 Q1020 -SHRA WNW (290°) 10.4mph 10°C 2°C
18/03/19 11:50 EGSC 181150Z 30008KT 9999 SCT025 10/02 Q1020 WNW (300°) 9.2mph 10°C 2°C
18/03/19 10:20 EGSC 181020Z 29011KT 270V330 9999 SCT020 09/03 Q1020 WNW (290°) 12.7mph 9°C 3°C
18/03/19 09:50 EGSC 180950Z 30010KT 9999 FEW020 08/03 Q1019 WNW (300°) 11.5mph 8°C 3°C
18/03/19 09:20 EGSC 180920Z 28009KT 9999 FEW025 08103 Q1019 W (280°) 10.4mph 0°C 0°C
15/03/19 17:50 EGSC 151750Z 30010KT 9999 BKN035 12/04 Q1007 WNW (300°) 11.5mph 12°C 4°C
15/03/19 17:20 EGSC 151720Z 28014KT 9999 BKN035 12/04 Q1007 W (280°) 16.1mph 12°C 4°C
15/03/19 16:50 EGSC 151650Z 27018KT 9999 FEW035 13/04 Q1006 W (270°) 20.7mph 13°C 4°C
15/03/19 16:20 EGSC 151620Z 28019G29KT 9999 SCT040 13/04 Q1006 W (280°) 21.9mph 33.4mph 13°C 4°C
15/03/19 15:20 EGSC 151520Z 28021G32KT 9999 FEW048 14/04 Q1005 W (280°) 24.2mph 36.8mph 14°C 4°C
15/03/19 14:50 EGSC 151450Z 28023KT 9999 SCT044 14/04 Q1004 W (280°) 26.5mph 14°C 4°C
15/03/19 14:20 EGSC 151420Z 28023G34KT 9999 FEW038 SCT042 14/05 Q1004 W (280°) 26.5mph 39.1mph 14°C 5°C
15/03/19 13:50 EGSC 151350Z 27018KT 9999 SCT038 14/05 Q1004 W (270°) 20.7mph 14°C 5°C
15/03/19 12:50 EGSC 151250Z 28023KT 9999 FEW035 15/06 Q1003 W (280°) 26.5mph 15°C 6°C
15/03/19 12:20 EGSC 151220Z 28022G34KT 9999 FEW030 15/07 Q1003 W (280°) 25.3mph 39.1mph 15°C 7°C
15/03/19 11:50 EGSC 151150Z 27020G31KT 9000 VCSH BKN030 14/08 Q1003 VCSH W (270°) 23.0mph 35.7mph 14°C 8°C
15/03/19 11:20 EGSC 151120Z 28023G36KT 9999 VCSH BKN030 15/08 Q1003 VCSH W (280°) 26.5mph 41.4mph 15°C 8°C
15/03/19 10:50 EGSC 151050Z 27020G30KT 9999 BKN028 15/08 Q1002 W (270°) 23.0mph 34.5mph 15°C 8°C
15/03/19 10:20 EGSC 151020Z 27018G31KT 9999 SCT023 BKN028 14/09 Q1003 W (270°) 20.7mph 35.7mph 14°C 9°C
15/03/19 09:50 EGSC 150950Z 26019KT 9999 BKN023 14/09 Q1003 W (260°) 21.9mph 14°C 9°C
15/03/19 09:20 EGSC 150920Z 26019KT 9999 BKN023 14/09 Q1002 W (260°) 21.9mph 14°C 9°C
15/03/19 08:50 EGSC 150850Z 25020KT 9999 FEW021 BKN024 13/08 Q1002 WSW (250°) 23.0mph 13°C 8°C
15/03/19 08:20 EGSC 150820Z 25019G29KT 9999 FEW021 BKN024 13/09 Q1002 WSW (250°) 21.9mph 33.4mph 13°C 9°C
15/03/19 07:50 EGSC 150750Z 25016KT 9999 BKN022 12/09 Q1002 WSW (250°) 18.4mph 12°C 9°C
14/03/19 19:20 EGSC 141920Z 25010KT 9999 FEW040 09/02 Q1007 WSW (250°) 11.5mph 9°C 2°C
14/03/19 18:50 EGSC 141850Z 27010KT 9999 SCT049 10/02 Q1006 W (270°) 11.5mph 10°C 2°C
14/03/19 18:20 EGSC 141820Z 27011KT 9999 FEW047 10/02 Q1006 W (270°) 12.7mph 10°C 2°C
14/03/19 17:20 EGSC 141720Z 28015KT 9999 FEW047 11/02 Q1005 W (280°) 17.3mph 11°C 2°C
14/03/19 16:50 EGSC 141650Z 30022G34KT 9999 FEW047 12/02 Q1004 WNW (300°) 25.3mph 39.1mph 12°C 2°C
14/03/19 16:20 EGSC 141620Z 29019KT 270V330 9999 SCT047 13/02 Q1003 WNW (290°) 21.9mph 13°C 2°C
14/03/19 15:50 EGSC 141550Z 30020G32KT 9999 SCT047 13/01 Q1003 WNW (300°) 23.0mph 36.8mph 13°C 1°C
14/03/19 14:50 EGSC 141450Z 31020G32KT 9999 SCT047 14/01 Q1002 NW (310°) 23.0mph 36.8mph 14°C 1°C
14/03/19 14:20 EGSC 141420Z 30023G35KT 9999 SCT047 13/01 Q1001 WNW (300°) 26.5mph 40.3mph 13°C 1°C
14/03/19 13:50 EGSC 141350Z 30026KT 9999 FEW047 13/01 Q1001 WNW (300°) 29.9mph 13°C 1°C
14/03/19 13:20 EGSC 141320Z 30022G34KT 9999 SCT045 13/02 Q1000 WNW (300°) 25.3mph 39.1mph 13°C 2°C
14/03/19 12:50 EGSC 141250Z 31023G36KT 9999 SCT042 14/03 Q1000 NW (310°) 26.5mph 41.4mph 14°C 3°C
14/03/19 12:20 EGSC 141220Z 29026G39KT 9999 SCT042 13/02 Q1000 WNW (290°) 29.9mph 44.9mph 13°C 2°C
14/03/19 11:20 EGSC 141120Z 30022G33KT 9999 FEW030 SCT040 13/04 Q0999 WNW (300°) 25.3mph 38.0mph 13°C 4°C
14/03/19 10:50 EGSC 141050Z 30023G34KT 9999 SCT032 12/05 Q0999 WNW (300°) 26.5mph 39.1mph 12°C 5°C
14/03/19 10:20 EGSC 141020Z 30024KT 9999 VCSH FEW008 SCT020 12/07 Q0998 VCSH WNW (300°) 27.6mph 12°C 7°C
14/03/19 09:50 EGSC 140950Z 30026G40KT 8000 -RA FEW008 BKN020 10/07 Q0998 RERA -RA WNW (300°) 29.9mph 46.0mph 10°C 7°C
14/03/19 09:20 EGSC 140920Z 26023G36KT 9000 RA FEW012 BKN020 11/07 Q0997 RA W (260°) 26.5mph 41.4mph 11°C 7°C
14/03/19 08:20 EGSC 140820Z 25022KT 9999 SCT015 SCT022 10/07 Q0998 WSW (250°) 25.3mph 10°C 7°C
14/03/19 07:50 EGSC 140750Z 25023KT 9999 -DZ SCT015 SCT020 10/07 Q0998 -DZ WSW (250°) 26.5mph 10°C 7°C
13/03/19 17:50 EGSC 131750Z 29016KT 9999 SCT040 09/01 Q1010 WNW (290°) 18.4mph 9°C 1°C
13/03/19 17:20 EGSC 131720Z 29020KT 9999 FEW030 SCT035 09/01 Q1010 WNW (290°) 23.0mph 9°C 1°C
13/03/19 16:50 EGSC 131650Z 29019G35KT 9999 FEW031 SCT035 10/02 Q1009 WNW (290°) 21.9mph 40.3mph 10°C 2°C
13/03/19 15:50 EGSC 131550Z 29019G29KT 260V320 9999 BKN040 10/02 Q1008 WNW (290°) 21.9mph 33.4mph 10°C 2°C
13/03/19 15:20 EGSC 131520Z 30022G32KT 9999 BKN043 11/01 Q1007 WNW (300°) 25.3mph 36.8mph 11°C 1°C
13/03/19 14:50 EGSC 131450Z 29023G36KT 270V330 9999 FEW038 BKN046 11/01 Q1006 WNW (290°) 26.5mph 41.4mph 11°C 1°C
13/03/19 14:20 EGSC 131420Z 30028G40KT 9999 FEW038 BKN046 11/01 Q1006 WNW (300°) 32.2mph 46.0mph 11°C 1°C
13/03/19 13:50 EGSC 131350Z 29024G37KT 9999 FEW035 BKN040 11/01 Q1006 WNW (290°) 27.6mph 42.6mph 11°C 1°C
13/03/19 13:20 EGSC 131320Z 29026G43KT 9999 FEW035 BKN040 10/01 Q1005 WNW (290°) 29.9mph 49.5mph 10°C 1°C
13/03/19 12:50 EGSC 131250Z 29024G37KT 9999 SCT035 SCT042 11/01 Q1005 WNW (290°) 27.6mph 42.6mph 11°C 1°C
13/03/19 12:20 EGSC 131220Z 29026G38KT 9999 FEW030 BKN035 10/02 Q1004 WNW (290°) 29.9mph 43.7mph 10°C 2°C
13/03/19 11:50 EGSC 131150Z 29030G43KT 9999 BKN030 10/02 Q1004 WNW (290°) 34.5mph 49.5mph 10°C 2°C
13/03/19 11:20 EGSC 131120Z 29028G44KT 9999 BKN030 10/03 Q1004 WNW (290°) 32.2mph 50.6mph 10°C 3°C
13/03/19 10:50 EGSC 131050Z 28025G37KT 250V310 9999 FEW028 SCT034 10/03 Q1003 W (280°) 28.8mph 42.6mph 10°C 3°C
13/03/19 10:20 EGSC 131020Z 27027G41KT 9999 SCT028 10/03 Q1002 W (270°) 31.1mph 47.2mph 10°C 3°C
13/03/19 09:50 EGSC 130950Z 28022G35KT 9999 SCT030 10/03 Q1002 W (280°) 25.3mph 40.3mph 10°C 3°C
13/03/19 08:50 EGSC 130850Z 27023G33KT 9999 FEW030 09/03 Q1001 W (270°) 26.5mph 38.0mph 9°C 3°C
13/03/19 08:20 EGSC 130820Z 27025KT 9999 BKN030 08/03 Q1001 W (270°) 28.8mph 8°C 3°C
13/03/19 07:50 EGSC 130750Z 26023G35KT 9999 FEW030 08/02 Q1000 W (260°) 26.5mph 40.3mph 8°C 2°C
12/03/19 17:50 EGSC 121750Z 24011KT 9999 FEW017 05/02 Q1000 WSW (240°) 12.7mph 5°C 2°C
12/03/19 17:20 EGSC 121720Z 25012KT 9999 FEW012 05/03 Q1000 WSW (250°) 13.8mph 5°C 3°C
12/03/19 16:50 EGSC 121650Z 25015KT 9999 FEW008 05/03 Q1000 WSW (250°) 17.3mph 5°C 3°C
12/03/19 16:20 EGSC 121620Z 25010KT 9999 SCT010 04/03 Q0999 WSW (250°) 11.5mph 4°C 3°C
12/03/19 15:50 EGSC 121550Z 26011KT 9000 -RA BKN008 04/02 Q0999 -RA W (260°) 12.7mph 4°C 2°C
12/03/19 15:20 EGSC 121520Z 28013KT 7000 -RA BKN008 04/02 Q1000 -RA W (280°) 15.0mph 4°C 2°C
12/03/19 14:50 EGSC 121450Z 28014KT 7000 RA SCT006 BKN010 04/02 Q0999 RA W (280°) 16.1mph 4°C 2°C
12/03/19 14:20 EGSC 121420Z 30011KT 7000 RA BKN006 BKN010 05/03 Q0999 RA WNW (300°) 12.7mph 5°C 3°C
12/03/19 13:20 EGSC 121320Z 31013KT 7000 RA SCT006 BKN010 06/04 Q0998 RA NW (310°) 15.0mph 6°C 4°C
12/03/19 12:20 EGSC 121220Z 20020G33KT 8000 -RA BKN010 10/08 Q0997 -RA SSW (200°) 23.0mph 38.0mph 10°C 8°C
12/03/19 11:50 EGSC 121150Z 20022G36KT 9999 -RA BKN013 10/07 Q0998 -RA SSW (200°) 25.3mph 41.4mph 10°C 7°C
12/03/19 10:50 EGSC 121050Z 20020G32KT 8000 -DZ BKN011 10/07 Q1000 -DZ SSW (200°) 23.0mph 36.8mph 10°C 7°C
12/03/19 10:20 EGSC 121020Z 21021G33KT 8000 -DZ BKN012 10/07 Q1001 -DZ SSW (210°) 24.2mph 38.0mph 10°C 7°C
12/03/19 09:50 EGSC 120950Z 20021G35KT 9999 BKN012 10/06 Q1002 SSW (200°) 24.2mph 40.3mph 10°C 6°C
12/03/19 09:20 EGSC 120920Z 20022G34KT 9999 BKN010 09/06 Q1003 SSW (200°) 25.3mph 39.1mph 9°C 6°C
12/03/19 08:50 EGSC 120850Z 21020G31KT 9999 BKN010 09/06 Q1004 SSW (210°) 23.0mph 35.7mph 9°C 6°C
12/03/19 07:50 EGSC 120750Z 20020KT 9999 BKN014 09/06 Q1005 SSW (200°) 23.0mph 9°C 6°C
11/03/19 17:50 EGSC 111750Z 21005KT 170V250 CAVOK 07/M02 Q1024 SSW (210°) 5.8mph 7°C -2°C
11/03/19 16:50 EGSC 111650Z 29008KT CAVOK 10/M03 Q1024 WNW (290°) 9.2mph 10°C -3°C
11/03/19 16:20 EGSC 111620Z 29014KT 9999 FEW042 10/M04 Q1024 WNW (290°) 16.1mph 10°C -4°C
11/03/19 15:50 EGSC 111550Z 29013KT 9999 FEW042 10/M04 Q1024 WNW (290°) 15.0mph 10°C -4°C
11/03/19 15:20 EGSC 111520Z 29016KT 9999 FEW042 10/M03 Q1024 WNW (290°) 18.4mph 10°C -3°C
11/03/19 14:50 EGSC 111450Z 29017KT 250V320 9999 SCT045 10/M03 Q1024 WNW (290°) 19.6mph 10°C -3°C
11/03/19 14:20 EGSC 111420Z 29017KT 9999 SCT045 09/M03 Q1024 WNW (290°) 19.6mph 9°C -3°C
11/03/19 13:50 EGSC 111350Z 29017G31KT 9999 SCT045 10/M03 Q1024 WNW (290°) 19.6mph 35.7mph 10°C -3°C
11/03/19 13:20 EGSC 111320Z 29020KT 9999 SCT040 09/M03 Q1024 WNW (290°) 23.0mph 9°C -3°C
11/03/19 12:50 EGSC 111250Z 29020KT 9999 SCT037 09/M02 Q1024 WNW (290°) 23.0mph 9°C -2°C
11/03/19 12:20 EGSC 111220Z 29019KT 270V330 9999 SCT037 09/M02 Q1024 WNW (290°) 21.9mph 9°C -2°C
11/03/19 11:50 EGSC 111150Z 29020KT 9999 SCT036 08/M02 Q1023 WNW (290°) 23.0mph 8°C -2°C
11/03/19 11:20 EGSC 111120Z 29021KT 9999 SCT035 08/M02 Q1023 WNW (290°) 24.2mph 8°C -2°C
11/03/19 10:50 EGSC 111050Z 29023G33KT 9999 SCT032 08/M02 Q1022 WNW (290°) 26.5mph 38.0mph 8°C -2°C
11/03/19 10:20 EGSC 111020Z 30021G32KT 9999 SCT030 07/M01 Q1022 WNW (300°) 24.2mph 36.8mph 7°C -1°C
11/03/19 09:20 EGSC 110920Z 29016G30KT 9999 SCT029 06/M01 Q1021 WNW (290°) 18.4mph 34.5mph 6°C -1°C
11/03/19 08:50 EGSC 110850Z 29019KT 9999 FEW029 06/M01 Q1021 WNW (290°) 21.9mph 6°C -1°C
11/03/19 08:20 EGSC 110820Z 28016KT 9999 FEW029 05/M01 Q1020 W (280°) 18.4mph 5°C -1°C
11/03/19 07:50 EGSC 110750Z 27016KT 9999 FEW029 04/M01 Q1020 W (270°) 18.4mph 4°C -1°C
8/03/19 17:50 EGSC 081750Z 20011KT 8000 -SHRA FEW010 BKN032 08/05 Q1007 -SHRA SSW (200°) 12.7mph 8°C 5°C